Time;durP1;ratioP1;P1;durP2;ratioP2;P2;SDS_P1;SDS_P2;PMS_P1;PMS_P2;Temp;Humidity;BMP_temperature;BMP_pressure;BME280_temperature;BME280_humidity;BME280_pressure;Samples;Min_cycle;Max_cycle;Signal;HPM_P1;HPM_P2
2023/06/17 00:01:02;;;;;;;34.08;22.42;;;;;;;15.54;83.78;101422.88;5011118;28;20018;-68
2023/06/17 00:03:28;;;;;;;32.15;21.65;;;;;;;15.54;82.77;101422.88;5012373;28;20113;-68
2023/06/17 00:05:53;;;;;;;43.67;21.92;;;;;;;15.53;83.24;101424.66;5011920;28;20121;-68
2023/06/17 00:08:19;;;;;;;34.58;21.98;;;;;;;15.58;82.76;101424.38;5011753;28;20060;-68
2023/06/17 00:10:44;;;;;;;37.28;22.55;;;;;;;15.63;82.80;101426.75;4995074;28;20124;-67
2023/06/17 00:13:10;;;;;;;41.97;23.35;;;;;;;15.56;82.33;101423.63;4994788;28;20530;-68
2023/06/17 00:15:36;;;;;;;43.97;22.80;;;;;;;15.65;82.57;101424.84;5011706;28;20061;-67
2023/06/17 00:18:03;;;;;;;32.55;21.20;;;;;;;15.61;82.88;101424.19;5011557;28;20391;-67
2023/06/17 00:20:29;;;;;;;39.65;21.88;;;;;;;15.63;82.25;101422.28;5011961;28;20033;-68
2023/06/17 00:22:54;;;;;;;36.42;21.45;;;;;;;15.70;82.75;101420.97;5010463;28;20038;-69
2023/06/17 00:25:20;;;;;;;40.05;22.42;;;;;;;15.72;81.75;101424.38;5011344;28;20160;-68
2023/06/17 00:27:45;;;;;;;36.85;21.92;;;;;;;15.83;81.38;101429.03;5010932;28;20057;-68
2023/06/17 00:30:11;;;;;;;38.10;23.50;;;;;;;15.92;80.68;101422.31;5011134;28;20119;-68
2023/06/17 00:32:36;;;;;;;37.83;23.77;;;;;;;15.69;81.02;101416.56;5011973;28;20422;-67
2023/06/17 00:35:05;;;;;;;34.97;23.95;;;;;;;15.81;81.22;101419.44;4995446;28;20455;-70
2023/06/17 00:37:31;;;;;;;42.33;24.70;;;;;;;15.55;82.22;101414.75;5011091;28;20033;-67
2023/06/17 00:39:56;;;;;;;41.67;24.83;;;;;;;15.61;81.68;101418.88;5011925;28;20057;-66
2023/06/17 00:42:22;;;;;;;37.83;24.75;;;;;;;15.64;81.95;101417.81;5012571;28;20383;-68
2023/06/17 00:44:47;;;;;;;44.65;25.17;;;;;;;15.65;82.02;101425.72;4995388;28;20026;-68
2023/06/17 00:47:13;;;;;;;43.00;25.42;;;;;;;15.58;81.78;101413.72;5011485;28;20029;-69
2023/06/17 00:49:40;;;;;;;38.70;26.25;;;;;;;15.55;81.61;101408.59;5013989;28;20120;-68
2023/06/17 00:52:09;;;;;;;49.15;25.33;;;;;;;15.54;82.59;101413.03;4998559;28;20025;-68
2023/06/17 00:54:39;;;;;;;41.67;24.73;;;;;;;15.54;81.75;101401.53;5014957;28;20022;-68
2023/06/17 00:57:08;;;;;;;39.58;25.48;;;;;;;15.58;81.79;101419.06;5014701;28;20492;-69
2023/06/17 00:59:34;;;;;;;43.08;25.02;;;;;;;15.56;81.64;101421.81;5014583;28;20514;-68
2023/06/17 01:02:00;;;;;;;42.22;24.23;;;;;;;15.57;82.03;101414.69;5014374;28;20030;-67
2023/06/17 01:04:25;;;;;;;38.92;25.80;;;;;;;15.64;81.81;101417.81;5014409;28;20463;-68
2023/06/17 01:06:59;;;;;;;36.88;25.75;;;;;;;15.59;81.13;101408.28;5014428;28;20499;-69
2023/06/17 01:09:29;;;;;;;35.92;25.10;;;;;;;15.58;82.61;101408.38;4998069;28;20471;-68
2023/06/17 01:11:56;;;;;;;42.90;25.85;;;;;;;15.65;81.76;101409.72;4998550;28;20033;-66
2023/06/17 01:14:21;;;;;;;41.63;26.30;;;;;;;15.56;81.42;101404.97;5014521;28;20044;-68
2023/06/17 01:16:50;;;;;;;37.97;24.75;;;;;;;15.64;81.51;101408.00;5014390;28;20021;-68
2023/06/17 01:19:22;;;;;;;44.53;24.45;;;;;;;15.82;80.82;101389.13;5014721;28;20029;-68
2023/06/17 01:21:53;;;;;;;34.27;22.67;;;;;;;15.78;81.01;101392.94;4998809;28;20037;-68
2023/06/17 01:24:28;;;;;;;37.63;25.75;;;;;;;15.62;81.16;101385.91;5015148;28;20037;-68
2023/06/17 01:26:59;;;;;;;44.35;27.40;;;;;;;15.57;82.34;101406.69;5015044;28;20030;-67
2023/06/17 01:29:26;;;;;;;40.78;24.85;;;;;;;15.67;81.70;101404.28;5014712;28;20061;-68
2023/06/17 01:31:56;;;;;;;39.50;25.80;;;;;;;15.55;81.83;101398.75;5015013;28;20021;-69
2023/06/17 01:34:24;;;;;;;41.67;27.48;;;;;;;15.38;82.67;101397.13;5015768;28;20036;-67
2023/06/17 01:36:52;;;;;;;38.78;26.15;;;;;;;15.47;82.52;101397.50;5014645;28;20030;-68
2023/06/17 01:39:19;;;;;;;38.88;25.50;;;;;;;15.53;81.88;101402.50;4998629;28;20045;-67
2023/06/17 01:41:53;;;;;;;40.33;26.20;;;;;;;15.50;81.83;101394.66;5014167;28;20033;-68
2023/06/17 01:44:19;;;;;;;43.60;26.20;;;;;;;15.63;81.28;101390.28;4982047;28;20026;-68
2023/06/17 01:46:44;;;;;;;41.22;25.30;;;;;;;15.63;81.07;101392.09;4997004;28;20072;-70
2023/06/17 01:49:10;;;;;;;40.33;25.08;;;;;;;15.62;80.99;101393.03;5014810;28;20053;-68
2023/06/17 01:51:35;;;;;;;44.42;25.77;;;;;;;15.59;81.42;101383.44;5014297;28;20490;-68
2023/06/17 01:54:01;;;;;;;41.30;24.35;;;;;;;15.64;81.22;101392.00;5013705;28;20072;-68
2023/06/17 01:56:26;;;;;;;38.63;24.35;;;;;;;15.67;81.60;101391.81;5013245;28;20030;-68
2023/06/17 01:58:52;;;;;;;37.30;23.77;;;;;;;15.63;80.77;101392.97;4997167;28;20033;-67
2023/06/17 02:01:17;;;;;;;43.50;25.83;;;;;;;15.48;81.39;101383.22;4996202;28;20080;-67
2023/06/17 02:03:43;;;;;;;33.28;24.25;;;;;;;15.59;81.42;101388.78;5013101;28;20040;-68
2023/06/17 02:06:08;;;;;;;36.17;23.52;;;;;;;15.61;81.85;101392.19;5012122;28;20479;-68
2023/06/17 02:08:34;;;;;;;40.40;27.65;;;;;;;15.49;81.91;101407.13;5012707;28;20479;-68
2023/06/17 02:11:00;;;;;;;39.40;25.98;;;;;;;15.49;82.04;101398.25;4996426;28;20053;-68
2023/06/17 02:13:26;;;;;;;41.67;25.65;;;;;;;15.53;81.24;101392.66;5012497;28;20111;-67
2023/06/17 02:15:51;;;;;;;42.53;26.60;;;;;;;15.48;82.13;101391.22;4995541;28;20493;-69
2023/06/17 02:18:17;;;;;;;37.08;25.08;;;;;;;15.42;81.93;101387.97;5012174;28;20030;-67
2023/06/17 02:20:42;;;;;;;43.95;26.60;;;;;;;15.52;82.01;101398.06;5012749;28;20026;-68
2023/06/17 02:23:08;;;;;;;37.55;23.48;;;;;;;15.58;81.23;101393.22;5012242;28;20088;-68
2023/06/17 02:25:33;;;;;;;42.85;26.00;;;;;;;15.47;82.09;101385.03;5012389;28;20052;-68
2023/06/17 02:27:58;;;;;;;42.10;26.17;;;;;;;15.44;81.68;101391.41;5012575;28;20053;-67
2023/06/17 02:30:24;;;;;;;40.70;24.83;;;;;;;15.56;81.22;101388.97;5014517;28;20025;-68
2023/06/17 02:32:49;;;;;;;48.22;26.00;;;;;;;15.59;80.97;101399.44;5012632;28;20022;-67
2023/06/17 02:35:15;;;;;;;45.67;26.08;;;;;;;15.60;81.50;101401.16;4996891;28;20394;-67
2023/06/17 02:37:41;;;;;;;35.45;25.13;;;;;;;15.57;80.88;101398.69;5013319;28;20168;-67
2023/06/17 02:40:08;;;;;;;41.95;26.75;;;;;;;15.63;80.73;101394.75;5012512;28;20064;-70
2023/06/17 02:42:35;;;;;;;41.17;24.23;;;;;;;15.67;81.35;101391.81;5013733;28;20030;-68
2023/06/17 02:45:00;;;;;;;38.42;24.63;;;;;;;15.59;81.26;101394.94;5029474;28;20025;-66
2023/06/17 02:47:26;;;;;;;41.50;26.75;;;;;;;15.49;81.46;101390.25;5012080;28;20026;-67
2023/06/17 02:49:51;;;;;;;38.53;25.80;;;;;;;15.53;81.46;101390.00;5013235;28;20133;-68
2023/06/17 02:52:17;;;;;;;40.40;26.17;;;;;;;15.50;81.69;101394.66;5012361;28;20022;-68
2023/06/17 02:54:43;;;;;;;43.83;26.88;;;;;;;15.51;81.28;101393.69;4995867;28;20022;-68
2023/06/17 02:57:08;;;;;;;40.75;26.75;;;;;;;15.40;81.56;101389.88;5012945;28;20022;-67
2023/06/17 02:59:35;;;;;;;42.47;26.40;;;;;;;15.42;81.42;101392.47;5012285;28;20033;-68
2023/06/17 03:02:01;;;;;;;41.38;24.92;;;;;;;15.49;81.33;101398.25;5011746;28;20018;-67
2023/06/17 03:04:34;;;;;;;44.42;25.73;;;;;;;15.52;81.30;101400.75;5011636;28;20022;-67
2023/06/17 03:07:02;;;;;;;42.22;25.38;;;;;;;15.48;81.27;101391.22;5011828;28;20049;-66
2023/06/17 03:09:28;;;;;;;40.75;26.70;;;;;;;15.57;81.14;101380.00;5011814;28;20036;-68
2023/06/17 03:11:53;;;;;;;44.78;26.00;;;;;;;15.70;80.53;101377.41;5011491;28;20022;-68
2023/06/17 03:14:19;;;;;;;44.20;24.77;;;;;;;15.52;81.42;101371.41;4995758;28;20104;-69
2023/06/17 03:16:45;;;;;;;41.88;25.20;;;;;;;15.57;80.62;101380.00;5011813;28;20021;-68
2023/06/17 03:19:10;;;;;;;42.13;24.38;;;;;;;15.74;80.25;101384.25;5011372;28;20022;-68
2023/06/17 03:21:40;;;;;;;41.13;25.90;;;;;;;15.71;80.04;101388.00;4994973;28;20057;-69
2023/06/17 03:24:06;;;;;;;37.22;23.25;;;;;;;15.64;79.98;101380.47;4996083;28;20026;-68
2023/06/17 03:26:31;;;;;;;39.58;25.30;;;;;;;15.51;81.80;101385.69;5011851;28;20492;-68
2023/06/17 03:28:57;;;;;;;40.17;25.50;;;;;;;15.41;81.25;101386.28;5012859;28;20025;-68
2023/06/17 03:31:23;;;;;;;43.00;23.33;;;;;;;15.52;82.05;101387.41;5013042;28;20217;-70
2023/06/17 03:33:52;;;;;;;40.30;25.42;;;;;;;15.55;82.14;101395.25;5011953;28;20455;-68
2023/06/17 03:36:18;;;;;;;35.63;24.02;;;;;;;15.42;82.02;101379.97;5011339;28;20021;-67
2023/06/17 03:38:44;;;;;;;35.20;24.67;;;;;;;15.48;80.80;101385.88;5013919;28;20032;-68
2023/06/17 03:41:10;;;;;;;40.60;23.80;;;;;;;15.48;81.49;101375.22;5014909;28;20037;-67
2023/06/17 03:43:35;;;;;;;35.83;21.63;;;;;;;15.47;81.19;101389.50;5030722;28;20470;-68
2023/06/17 03:46:00;;;;;;;39.50;22.52;;;;;;;15.52;80.93;101376.75;5031040;28;20029;-68
2023/06/17 03:48:26;;;;;;;36.03;22.92;;;;;;;15.56;81.65;101379.13;5016268;28;20028;-66
2023/06/17 03:50:51;;;;;;;35.50;21.35;;;;;;;15.57;81.33;101374.69;4999535;28;20029;-66
2023/06/17 03:53:16;;;;;;;37.97;22.48;;;;;;;15.57;80.98;101385.34;5015563;28;20470;-67
2023/06/17 03:55:42;;;;;;;37.95;22.50;;;;;;;15.67;81.45;101382.94;5015387;28;20029;-66
2023/06/17 03:58:07;;;;;;;41.88;22.92;;;;;;;15.68;80.17;101377.53;5015812;28;20025;-67
2023/06/17 04:00:33;;;;;;;39.45;24.30;;;;;;;15.72;80.59;101384.38;4999106;28;20035;-68
2023/06/17 04:02:58;;;;;;;36.03;22.67;;;;;;;15.59;81.34;101378.09;5031858;28;20029;-66
2023/06/17 04:05:31;;;;;;;35.05;22.60;;;;;;;15.60;80.39;101382.47;5033031;28;20071;-67
2023/06/17 04:07:58;;;;;;;42.03;24.60;;;;;;;15.68;80.41;101385.53;4999864;28;20116;-67
2023/06/17 04:10:24;;;;;;;38.85;24.20;;;;;;;15.65;80.85;101372.38;5015204;28;20063;-66
2023/06/17 04:12:49;;;;;;;35.88;23.27;;;;;;;15.61;80.73;101381.53;5015274;28;20044;-67
2023/06/17 04:15:15;;;;;;;38.85;23.83;;;;;;;15.53;80.89;101386.50;4998852;28;20070;-67
2023/06/17 04:17:40;;;;;;;41.95;23.30;;;;;;;15.69;80.43;101381.91;5015125;28;20485;-66
2023/06/17 04:20:12;;;;;;;37.70;23.30;;;;;;;15.74;81.24;101382.47;5015216;28;20025;-66
2023/06/17 04:22:41;;;;;;;34.67;23.15;;;;;;;15.82;80.66;101383.78;5016106;28;20037;-67
2023/06/17 04:25:08;;;;;;;38.03;22.40;;;;;;;15.85;80.36;101378.25;5003069;28;20060;-66
2023/06/17 04:27:34;;;;;;;44.03;22.90;;;;;;;15.95;80.27;101386.56;5020022;28;20022;-67
2023/06/17 04:30:01;;;;;;;33.47;22.77;;;;;;;15.90;79.76;101389.53;5003080;28;20082;-67
2023/06/17 04:32:26;;;;;;;36.80;22.67;;;;;;;16.05;79.15;101385.03;5035966;28;20108;-67
2023/06/17 04:34:52;;;;;;;38.58;24.17;;;;;;;15.86;80.15;101375.47;5019733;28;20512;-67
2023/06/17 04:37:18;;;;;;;36.42;24.17;;;;;;;15.86;79.99;101385.31;5019221;28;20033;-66
2023/06/17 04:39:44;;;;;;;43.08;23.73;;;;;;;15.73;80.90;101383.41;5032520;28;20054;-66
2023/06/17 04:42:18;;;;;;;39.00;23.30;;;;;;;15.76;80.71;101382.34;5016334;28;20108;-67
2023/06/17 04:44:44;;;;;;;33.45;22.85;;;;;;;16.00;79.53;101387.13;5016940;28;20026;-67
2023/06/17 04:47:11;;;;;;;44.03;24.65;;;;;;;15.81;79.69;101380.25;4999609;28;20029;-67
2023/06/17 04:49:41;;;;;;;40.30;23.65;;;;;;;15.87;80.36;101387.88;5031889;28;20434;-68
2023/06/17 04:52:08;;;;;;;42.30;25.08;;;;;;;15.93;80.03;101381.31;5016596;28;20022;-68
2023/06/17 04:54:34;;;;;;;38.67;24.02;;;;;;;15.95;80.16;101389.25;5015777;28;20391;-68
2023/06/17 04:56:59;;;;;;;39.40;23.30;;;;;;;16.06;79.90;101393.88;4999501;28;20026;-67
2023/06/17 04:59:24;;;;;;;38.90;24.77;;;;;;;16.01;79.35;101383.50;5015699;28;20028;-67
2023/06/17 05:01:50;;;;;;;40.28;24.00;;;;;;;15.98;79.46;101379.22;5015727;28;20036;-68
2023/06/17 05:04:15;;;;;;;40.42;24.33;;;;;;;15.97;79.57;101371.31;5015805;28;20056;-68
2023/06/17 05:06:40;;;;;;;39.97;25.48;;;;;;;15.85;80.38;101379.09;4999200;28;20084;-66
2023/06/17 05:09:07;;;;;;;43.10;25.42;;;;;;;16.04;79.63;101383.31;5016259;28;20026;-67
2023/06/17 05:11:32;;;;;;;39.50;24.25;;;;;;;16.21;78.63;101389.38;5015411;28;20371;-67
2023/06/17 05:13:57;;;;;;;40.35;25.35;;;;;;;16.14;79.23;101389.75;5016031;28;20018;-66
2023/06/17 05:16:23;;;;;;;43.45;26.10;;;;;;;16.08;79.62;101389.28;5015638;28;20490;-67
2023/06/17 05:18:48;;;;;;;46.45;26.40;;;;;;;16.27;78.60;101379.13;4999128;28;20168;-67
2023/06/17 05:21:13;;;;;;;48.58;26.02;;;;;;;16.19;79.30;101392.13;5015365;28;20084;-66
2023/06/17 05:23:39;;;;;;;43.58;26.23;;;;;;;16.47;78.48;101387.66;5031397;28;20021;-70
2023/06/17 05:26:04;;;;;;;45.55;27.83;;;;;;;16.25;78.82;101382.88;5015540;28;20036;-68
2023/06/17 05:28:29;;;;;;;40.38;26.08;;;;;;;16.32;78.52;101385.03;5015060;28;20084;-66
2023/06/17 05:30:55;;;;;;;42.05;27.15;;;;;;;16.25;79.12;101390.88;4998454;28;20117;-68
2023/06/17 05:33:20;;;;;;;40.78;24.70;;;;;;;16.41;78.11;101390.72;5015075;28;20014;-67
2023/06/17 05:35:46;;;;;;;46.35;26.65;;;;;;;16.24;78.00;101384.66;5014996;28;20101;-66
2023/06/17 05:38:11;;;;;;;49.67;25.98;;;;;;;16.44;78.59;101395.88;5014713;28;20398;-68
2023/06/17 05:40:36;;;;;;;43.17;25.20;;;;;;;16.46;78.08;101396.63;5014978;28;20203;-66
2023/06/17 05:43:02;;;;;;;47.33;28.20;;;;;;;16.42;78.31;101397.78;4998376;28;20025;-66
2023/06/17 05:45:28;;;;;;;47.90;27.92;;;;;;;16.34;78.04;101397.44;5015689;28;20132;-67
2023/06/17 05:47:53;;;;;;;45.70;26.10;;;;;;;16.49;78.02;101391.06;5014502;28;20110;-67
2023/06/17 05:50:19;;;;;;;45.28;26.38;;;;;;;16.66;77.88;101400.63;5015043;28;20116;-67
2023/06/17 05:52:45;;;;;;;46.88;27.67;;;;;;;16.57;77.93;101395.88;5014668;28;20025;-67
2023/06/17 05:55:11;;;;;;;42.90;26.70;;;;;;;16.64;77.33;101391.84;5015809;28;20026;-68
2023/06/17 05:57:36;;;;;;;44.45;26.63;;;;;;;16.78;76.63;101396.28;5015696;28;20466;-67
2023/06/17 06:00:03;;;;;;;42.35;26.02;;;;;;;17.01;77.03;101402.78;5014647;28;20030;-67
2023/06/17 06:02:28;;;;;;;40.83;24.85;;;;;;;16.87;76.88;101403.66;5014379;28;20037;-66
2023/06/17 06:04:54;;;;;;;37.97;26.75;;;;;;;16.84;76.43;101405.72;5015475;28;20112;-67
2023/06/17 06:07:19;;;;;;;39.05;24.10;;;;;;;17.02;76.91;101407.16;5015780;28;20426;-67
2023/06/17 06:09:44;;;;;;;42.28;24.98;;;;;;;16.98;76.04;101397.63;4998217;28;20025;-68
2023/06/17 06:12:10;;;;;;;36.05;23.95;;;;;;;16.91;76.70;101409.66;5014588;28;20018;-66
2023/06/17 06:14:36;;;;;;;46.28;26.50;;;;;;;16.94;75.99;101408.59;5015528;28;20064;-66
2023/06/17 06:17:01;;;;;;;40.65;24.67;;;;;;;16.96;76.66;101417.34;5014254;28;20057;-67
2023/06/17 06:19:26;;;;;;;42.80;26.52;;;;;;;16.81;76.74;101404.09;5014464;28;20026;-67
2023/06/17 06:21:52;;;;;;;44.83;25.25;;;;;;;16.91;76.42;101413.19;5014683;28;20022;-67
2023/06/17 06:24:17;;;;;;;43.90;25.90;;;;;;;16.79;76.46;101405.16;5014137;28;20042;-68
2023/06/17 06:26:42;;;;;;;37.25;24.38;;;;;;;17.01;76.10;101401.91;5014418;28;20080;-65
2023/06/17 06:29:09;;;;;;;38.95;23.95;;;;;;;17.61;73.76;101415.59;5013739;28;20056;-67
2023/06/17 06:31:34;;;;;;;37.55;23.92;;;;;;;17.56;73.31;101409.72;5015206;28;20497;-69
2023/06/17 06:33:59;;;;;;;39.53;23.73;;;;;;;17.60;73.88;101411.22;5014100;28;20026;-68
2023/06/17 06:36:25;;;;;;;37.38;23.55;;;;;;;17.51;74.38;101417.22;5014003;28;20029;-68
2023/06/17 06:38:50;;;;;;;39.75;24.67;;;;;;;17.40;73.32;101404.59;5016101;28;20184;-67
2023/06/17 06:41:16;;;;;;;40.35;23.92;;;;;;;17.22;75.37;101417.44;5034653;28;20446;-66
2023/06/17 06:43:41;;;;;;;41.45;24.73;;;;;;;17.25;74.89;101427.94;5017253;28;20017;-67
2023/06/17 06:46:07;;;;;;;41.35;23.75;;;;;;;17.83;72.50;101427.50;5034399;28;20026;-66
2023/06/17 06:48:32;;;;;;;34.17;21.70;;;;;;;18.18;71.93;101422.28;5016929;28;20025;-67
2023/06/17 06:50:57;;;;;;;32.08;21.17;;;;;;;18.16;69.96;101424.19;5034794;28;20382;-66
2023/06/17 06:53:24;;;;;;;32.92;20.92;;;;;;;17.78;71.59;101428.63;5034396;28;20027;-67
2023/06/17 06:55:50;;;;;;;38.67;24.58;;;;;;;17.50;73.18;101435.13;5034398;28;20500;-67
2023/06/17 06:58:15;;;;;;;37.78;23.52;;;;;;;17.28;74.40;101438.41;5000690;28;20068;-67
2023/06/17 07:00:40;;;;;;;36.67;23.95;;;;;;;17.18;74.73;101432.81;5034583;28;20053;-66
2023/06/17 07:03:06;;;;;;;38.60;24.30;;;;;;;17.42;74.32;101440.97;5016572;28;20021;-67
2023/06/17 07:05:31;;;;;;;34.05;22.35;;;;;;;17.44;74.09;101441.72;5033148;28;20033;-66
2023/06/17 07:07:57;;;;;;;36.53;23.15;;;;;;;17.51;73.90;101438.63;5034130;28;20033;-67
2023/06/17 07:10:23;;;;;;;42.15;25.45;;;;;;;17.63;74.14;101445.78;5016592;28;20255;-67
2023/06/17 07:12:48;;;;;;;35.65;23.90;;;;;;;17.68;73.34;101446.31;5016357;28;20105;-68
2023/06/17 07:15:14;;;;;;;37.20;24.20;;;;;;;17.60;73.43;101443.31;5000146;28;20433;-67
2023/06/17 07:17:39;;;;;;;36.95;24.02;;;;;;;17.55;73.11;101450.81;5016281;28;20021;-66
2023/06/17 07:20:05;;;;;;;40.92;25.02;;;;;;;17.44;74.43;101448.91;5032462;28;20021;-67
2023/06/17 07:22:30;;;;;;;37.60;25.80;;;;;;;17.36;73.59;101446.75;5032740;28;20026;-68
2023/06/17 07:24:56;;;;;;;39.28;23.98;;;;;;;18.08;73.03;101442.66;5016185;28;20378;-67
2023/06/17 07:27:21;;;;;;;43.53;25.08;;;;;;;17.61;71.94;101440.56;5015942;28;20053;-67
2023/06/17 07:29:46;;;;;;;35.92;23.30;;;;;;;18.38;70.23;101446.75;4999693;28;20423;-66
2023/06/17 07:32:12;;;;;;;40.28;23.40;;;;;;;17.74;71.94;101451.22;5033859;28;20463;-67
2023/06/17 07:34:37;;;;;;;43.55;24.92;;;;;;;17.66;73.36;101442.06;5016157;28;20048;-67
2023/06/17 07:37:03;;;;;;;35.47;23.10;;;;;;;17.99;71.11;101449.50;5033422;28;20028;-67
2023/06/17 07:39:28;;;;;;;41.67;24.65;;;;;;;17.83;72.32;101448.91;5034351;28;20045;-67
2023/06/17 07:41:53;;;;;;;35.72;22.35;;;;;;;18.61;70.34;101450.41;5015941;28;20033;-67
2023/06/17 07:44:19;;;;;;;36.03;22.80;;;;;;;18.48;69.10;101446.91;4999653;28;20558;-66
2023/06/17 07:46:45;;;;;;;33.25;22.23;;;;;;;18.41;71.13;101451.00;5016288;28;20064;-67
2023/06/17 07:49:10;;;;;;;36.80;21.83;;;;;;;18.30;71.09;101447.31;4999237;28;20382;-67
2023/06/17 07:51:37;;;;;;;36.45;21.42;;;;;;;18.29;70.20;101450.09;5015410;28;20520;-67
2023/06/17 07:54:04;;;;;;;38.33;24.33;;;;;;;18.58;69.09;101456.00;4999226;28;20022;-68
2023/06/17 07:56:29;;;;;;;31.40;21.48;;;;;;;18.65;68.97;101438.50;5033095;28;20078;-68
2023/06/17 07:58:55;;;;;;;34.35;22.38;;;;;;;18.06;71.09;101447.25;5030800;28;20510;-67
2023/06/17 08:01:22;;;;;;;32.95;21.85;;;;;;;18.43;70.00;101441.03;5015958;28;20029;-67
2023/06/17 08:03:47;;;;;;;36.95;21.20;;;;;;;18.62;69.24;101441.41;5032435;28;20025;-68
2023/06/17 08:06:16;;;;;;;32.92;20.98;;;;;;;18.61;69.08;101433.47;4999211;28;20026;-67
2023/06/17 08:08:41;;;;;;;33.95;21.92;;;;;;;18.60;68.70;101432.63;5032193;28;20443;-70
2023/06/17 08:11:07;;;;;;;31.70;21.63;;;;;;;18.88;68.34;101432.34;5033508;28;20053;-67
2023/06/17 08:13:33;;;;;;;29.42;21.25;;;;;;;18.69;68.63;101435.59;5015881;28;20017;-66
2023/06/17 08:15:58;;;;;;;25.85;17.98;;;;;;;19.83;64.97;101431.31;5015703;28;20032;-73
2023/06/17 08:18:24;;;;;;;26.70;18.63;;;;;;;19.56;66.35;101445.94;5014756;28;20040;-74
2023/06/17 08:20:49;;;;;;;29.95;20.42;;;;;;;18.93;67.95;101446.25;5014815;28;20529;-73
2023/06/17 08:23:15;;;;;;;27.65;18.88;;;;;;;18.87;68.12;101444.03;5015893;28;20029;-73
2023/06/17 08:25:41;;;;;;;31.75;21.05;;;;;;;18.55;68.73;101436.59;5015234;28;20088;-74
2023/06/17 08:28:06;;;;;;;30.70;18.73;;;;;;;18.93;67.57;101428.34;5015699;28;20017;-72
2023/06/17 08:30:32;;;;;;;29.25;18.40;;;;;;;18.86;67.09;101437.84;4998782;28;20493;-73
2023/06/17 08:32:57;;;;;;;29.02;18.17;;;;;;;18.79;68.29;101439.28;5014808;28;20029;-75
2023/06/17 08:35:23;;;;;;;29.08;19.52;;;;;;;18.84;68.11;101439.78;5015022;28;20532;-72
2023/06/17 08:37:48;;;;;;;28.35;18.88;;;;;;;18.69;68.17;101435.59;5015066;28;20437;-74
2023/06/17 08:40:15;;;;;;;29.02;19.30;;;;;;;19.02;67.34;101434.88;4998856;28;20072;-74
2023/06/17 08:42:40;;;;;;;26.27;18.05;;;;;;;18.97;66.66;101425.44;4998527;28;20032;-72
2023/06/17 08:45:06;;;;;;;27.33;17.40;;;;;;;19.14;66.25;101430.38;5015132;28;20025;-73
2023/06/17 08:47:44;;;;;;;25.08;16.75;;;;;;;19.22;65.76;101424.44;5015202;28;20037;-74
2023/06/17 08:50:10;;;;;;;24.70;18.15;;;;;;;19.16;64.88;101431.13;5014140;28;20075;-73
2023/06/17 08:52:36;;;;;;;26.35;18.08;;;;;;;19.40;63.68;101435.56;5014469;28;20022;-73
2023/06/17 08:55:01;;;;;;;23.85;16.65;;;;;;;19.77;62.49;101434.50;5014678;28;20025;-74
2023/06/17 08:57:27;;;;;;;21.42;16.45;;;;;;;20.36;60.33;101421.72;5014494;28;20386;-73
2023/06/17 08:59:53;;;;;;;22.50;16.55;;;;;;;20.99;59.76;101421.00;5031629;28;20095;-74
2023/06/17 09:02:18;;;;;;;22.65;16.38;;;;;;;20.52;60.69;101426.69;4997196;28;20029;-74
2023/06/17 09:04:43;;;;;;;27.08;17.25;;;;;;;20.20;62.50;101430.22;5013838;28;20104;-73
2023/06/17 09:07:09;;;;;;;31.48;18.67;;;;;;;19.89;63.73;101435.31;5030016;28;20479;-72
2023/06/17 09:09:35;;;;;;;27.38;17.55;;;;;;;19.49;65.19;101436.66;5014154;28;20025;-74
2023/06/17 09:12:05;;;;;;;29.55;18.50;;;;;;;19.64;64.58;101434.59;5001393;28;20132;-73
2023/06/17 09:14:31;;;;;;;25.80;17.35;;;;;;;19.99;64.09;101440.84;5017962;28;20108;-74
2023/06/17 09:16:56;;;;;;;28.10;17.02;;;;;;;19.74;64.28;101438.28;5017172;28;20561;-73
2023/06/17 09:19:22;;;;;;;25.67;16.08;;;;;;;20.06;63.01;101440.22;5019750;28;20022;-71
2023/06/17 09:21:48;;;;;;;28.40;17.65;;;;;;;20.24;63.08;101434.34;5038349;28;20470;-72
2023/06/17 09:24:13;;;;;;;21.02;14.85;;;;;;;20.08;62.90;101440.97;5038190;28;20044;-73
2023/06/17 09:26:41;;;;;;;26.00;15.23;;;;;;;20.46;61.25;101429.88;5054962;28;20037;-72
2023/06/17 09:29:07;;;;;;;26.20;15.32;;;;;;;20.04;61.69;101436.81;5036954;28;20043;-73
2023/06/17 09:31:46;;;;;;;21.25;14.60;;;;;;;20.21;60.61;101429.22;5020633;28;20477;-72
2023/06/17 09:34:11;;;;;;;21.10;14.98;;;;;;;20.99;59.39;101433.63;5037487;28;20110;-72
2023/06/17 09:36:38;;;;;;;22.58;15.02;;;;;;;20.65;59.14;101432.75;5037790;28;20056;-72
2023/06/17 09:39:09;;;;;;;21.60;14.18;;;;;;;20.72;59.32;101421.47;5037085;28;20379;-73
2023/06/17 09:41:40;;;;;;;20.85;14.25;;;;;;;21.00;58.46;101417.31;5037189;28;20088;-73
2023/06/17 09:44:06;;;;;;;21.48;13.77;;;;;;;21.00;57.67;101424.56;5020663;28;20029;-72
2023/06/17 09:46:35;;;;;;;20.00;13.35;;;;;;;20.51;59.11;101419.59;5037001;28;20052;-73
2023/06/17 09:49:06;;;;;;;21.80;13.05;;;;;;;20.59;59.21;101414.44;5036456;28;20025;-74
2023/06/17 09:51:37;;;;;;;20.52;13.07;;;;;;;20.36;59.79;101422.59;5020378;28;20063;-72
2023/06/17 09:54:04;;;;;;;16.15;11.50;;;;;;;21.34;55.80;101416.25;5037881;28;20059;-72
2023/06/17 09:56:33;;;;;;;17.00;12.45;;;;;;;21.21;55.38;101408.41;5036933;28;20112;-73
2023/06/17 09:59:00;;;;;;;19.40;11.52;;;;;;;20.99;56.22;101407.56;5036945;28;20028;-72
2023/06/17 10:01:30;;;;;;;20.35;12.30;;;;;;;20.59;56.92;101411.75;5036362;28;20024;-73
2023/06/17 10:03:59;;;;;;;20.00;10.63;;;;;;;20.71;56.36;101407.19;5054281;28;20481;-72
2023/06/17 10:06:26;;;;;;;15.38;11.80;;;;;;;20.78;56.44;101419.16;5036197;28;20021;-73
2023/06/17 10:08:52;;;;;;;18.95;10.57;;;;;;;21.17;55.54;101402.44;5035973;28;20032;-72
2023/06/17 10:11:19;;;;;;;16.52;11.55;;;;;;;21.61;54.84;101402.22;5036247;28;20598;-72
2023/06/17 10:13:50;;;;;;;15.05;10.80;;;;;;;22.05;54.62;101399.28;5036432;28;20071;-71
2023/06/17 10:16:17;;;;;;;14.68;11.15;;;;;;;21.77;54.97;101407.16;5036023;28;20124;-72
2023/06/17 10:18:45;;;;;;;15.50;11.30;;;;;;;21.90;53.72;101401.50;5035707;28;20035;-72
2023/06/17 10:21:11;;;;;;;17.42;10.60;;;;;;;22.17;52.88;101402.72;5034467;28;20021;-72
2023/06/17 10:23:37;;;;;;;17.15;10.23;;;;;;;22.03;52.43;101403.94;5035578;28;20436;-74
2023/06/17 10:26:07;;;;;;;13.00;8.82;;;;;;;21.51;51.38;101399.47;5035850;28;20078;-73
2023/06/17 10:28:43;;;;;;;11.90;8.15;;;;;;;21.23;51.38;101398.38;5036442;28;20028;-72
2023/06/17 10:31:30;;;;;;;15.00;8.23;;;;;;;21.29;52.39;101405.91;5053682;28;20074;-71
2023/06/17 10:33:57;;;;;;;15.65;7.53;;;;;;;21.63;51.84;101399.41;5035741;28;20147;-73
2023/06/17 10:36:23;;;;;;;9.82;7.45;;;;;;;22.11;47.02;101393.31;5020027;28;20024;-73
2023/06/17 10:39:12;;;;;;;10.40;7.25;;;;;;;22.10;48.01;101393.47;5053511;28;20025;-73
2023/06/17 10:41:37;;;;;;;14.13;8.52;;;;;;;22.12;49.30;101405.81;5036063;28;20029;-72
2023/06/17 10:44:26;;;;;;;19.80;11.70;;;;;;;21.73;53.36;101402.16;5036173;28;20095;-74
2023/06/17 10:46:52;;;;;;;17.38;11.45;;;;;;;21.61;55.13;101402.22;5053127;28;20464;-73
2023/06/17 10:49:18;;;;;;;18.48;11.13;;;;;;;21.79;54.79;101399.78;5035256;28;20075;-73
2023/06/17 10:51:59;;;;;;;17.38;10.88;;;;;;;22.05;54.17;101393.88;5035269;28;20048;-72
2023/06/17 10:54:32;;;;;;;16.60;9.73;;;;;;;22.79;51.59;101382.75;5019264;28;20024;-74
2023/06/17 10:57:01;;;;;;;15.90;8.85;;;;;;;22.68;49.94;101390.00;5035743;28;20032;-73
2023/06/17 10:59:28;;;;;;;14.85;7.60;;;;;;;22.62;47.82;101393.28;5034911;28;20020;-72
2023/06/17 11:02:08;;;;;;;12.75;8.07;;;;;;;23.27;47.45;101395.31;5034705;28;20098;-74
2023/06/17 11:04:42;;;;;;;15.73;8.38;;;;;;;23.58;46.73;101395.06;5053133;28;20035;-72
2023/06/17 11:07:08;;;;;;;14.02;8.52;;;;;;;23.49;47.04;101395.94;5035230;28;20402;-72